createdAt,value
2018-12-26T08:19:12.672Z,100289.22
2018-12-26T08:24:18.810Z,100283.03
2018-12-26T08:29:24.928Z,100283.94
2018-12-26T08:34:33.530Z,100288.66
2018-12-26T08:39:40.212Z,100289.62
2018-12-26T08:44:44.789Z,100282.88
2018-12-26T08:49:50.947Z,100297.28
2018-12-26T08:54:57.025Z,100288.80
2018-12-26T09:00:03.212Z,100290.17
2018-12-26T09:05:10.412Z,100293.81
2018-12-26T09:10:16.899Z,100297.41
2018-12-26T09:15:22.979Z,100305.59
2018-12-26T09:20:28.895Z,100306.84
2018-12-26T09:25:34.802Z,100305.27
2018-12-26T09:30:40.850Z,100302.20
2018-12-26T09:35:46.689Z,100304.31
2018-12-26T09:40:52.689Z,100305.43
2018-12-26T09:45:58.554Z,100287.66
2018-12-26T09:51:05.628Z,100286.01
2018-12-26T09:56:11.500Z,100272.77
2018-12-26T10:01:17.352Z,100277.37
2018-12-26T10:06:23.604Z,100267.70
2018-12-26T10:11:33.033Z,100292.25
2018-12-26T10:16:39.410Z,100290.51
2018-12-26T10:21:45.564Z,100292.38
2018-12-26T10:26:54.193Z,100295.30
2018-12-26T10:32:00.150Z,100282.09
2018-12-26T10:37:06.050Z,100286.29
2018-12-26T10:42:12.156Z,100271.91
2018-12-26T10:47:18.069Z,100267.52
2018-12-26T10:52:24.402Z,100267.99
2018-12-26T10:57:30.449Z,100254.01
2018-12-26T11:04:58.264Z,100245.11
2018-12-26T11:10:07.606Z,100239.48
2018-12-26T11:15:13.876Z,100234.35
2018-12-26T11:20:19.751Z,100227.99
2018-12-26T11:25:30.104Z,100226.59
2018-12-26T11:30:37.061Z,100224.75
2018-12-26T11:35:42.999Z,100217.88
2018-12-26T11:40:49.279Z,100218.89
2018-12-26T11:45:55.112Z,100195.94
2018-12-26T11:51:01.064Z,100195.94
2018-12-26T11:56:08.950Z,100209.86
2018-12-26T12:01:16.120Z,100203.86
2018-12-26T12:06:22.218Z,100190.69
2018-12-26T12:11:29.220Z,100195.00
2018-12-26T12:16:35.498Z,100184.21
2018-12-26T12:21:41.617Z,100178.48
2018-12-26T12:26:47.745Z,100187.41
2018-12-26T12:31:53.876Z,100198.55
2018-12-26T12:36:59.762Z,100201.12
2018-12-26T12:42:08.780Z,100186.17
2018-12-26T12:47:14.612Z,100188.02
2018-12-26T12:52:20.428Z,100188.84
2018-12-26T12:57:27.050Z,100187.70
2018-12-26T13:02:32.934Z,100181.34
2018-12-26T13:07:38.802Z,100177.06
2018-12-26T13:12:44.777Z,100181.84
2018-12-26T13:17:50.854Z,100174.93
2018-12-26T13:22:56.948Z,100184.00
2018-12-26T13:33:07.547Z,100182.79
2018-12-26T13:38:12.502Z,100182.06
2018-12-26T13:48:26.376Z,100187.83
2018-12-26T13:53:32.269Z,100198.08
2018-12-26T13:58:39.029Z,100194.59
2018-12-26T14:03:44.990Z,100194.59
2018-12-26T14:08:51.486Z,100192.92
2018-12-26T14:13:57.331Z,100193.93
2018-12-26T14:19:03.149Z,100203.19
2018-12-26T14:24:09.063Z,100205.33
2018-12-26T14:29:17.946Z,100196.59
2018-12-26T14:34:22.912Z,100176.19
2018-12-26T14:39:29.869Z,100192.33
2018-12-26T14:44:35.815Z,100193.14
2018-12-26T14:49:41.801Z,100193.94
2018-12-26T14:54:47.995Z,100188.42
2018-12-26T14:59:54.127Z,100196.64
2018-12-26T15:05:02.903Z,100181.70
2018-12-26T15:10:10.225Z,100187.77
2018-12-26T15:15:16.711Z,100180.13
2018-12-26T15:20:23.868Z,100162.72
2018-12-26T15:25:29.647Z,100175.33
2018-12-26T15:30:36.429Z,100184.75
2018-12-26T15:35:42.468Z,100177.83
2018-12-26T15:40:48.316Z,100179.41
2018-12-26T15:45:54.195Z,100183.95
2018-12-26T15:51:00.776Z,100185.47
2018-12-26T15:56:08.855Z,100179.13
2018-12-26T16:01:15.932Z,100166.07
2018-12-26T16:06:21.847Z,100186.78
2018-12-26T16:11:27.945Z,100191.45
2018-12-26T16:16:34.340Z,100176.13
2018-12-26T16:21:40.468Z,100176.13
2018-12-26T16:26:49.672Z,100190.80
2018-12-26T16:31:55.644Z,100182.87
2018-12-26T16:37:00.703Z,100182.53
2018-12-26T16:42:08.190Z,100179.12
2018-12-26T16:47:15.424Z,100187.20
2018-12-26T16:52:23.325Z,100191.95
2018-12-26T16:57:29.211Z,100202.27
2018-12-26T17:02:35.514Z,100205.39
2018-12-26T17:07:42.682Z,100207.43
2018-12-26T17:12:48.723Z,100205.41
2018-12-26T17:17:58.462Z,100208.20
2018-12-26T17:23:06.608Z,100212.88
2018-12-26T17:28:13.684Z,100212.88
2018-12-26T17:33:21.043Z,100204.51
2018-12-26T17:38:27.208Z,100204.51
2018-12-26T17:43:33.216Z,100221.75
2018-12-26T17:48:40.074Z,100227.45
2018-12-26T17:54:35.999Z,100223.39
2018-12-26T18:00:37.600Z,100231.59
2018-12-26T18:05:44.100Z,100236.64
2018-12-26T18:10:52.418Z,100226.67
2018-12-26T18:15:58.835Z,100231.53
2018-12-26T18:21:07.571Z,100232.86
2018-12-26T18:26:14.045Z,100231.50
2018-12-26T18:31:22.157Z,100231.20
2018-12-26T18:36:28.763Z,100238.19
2018-12-26T18:41:35.150Z,100238.19
2018-12-26T18:46:44.789Z,100242.70
2018-12-26T18:51:50.770Z,100240.80
2018-12-26T18:56:56.935Z,100246.20
2018-12-26T19:02:06.262Z,100230.78
2018-12-26T19:07:12.435Z,100255.77
2018-12-26T19:12:19.075Z,100252.88
2018-12-26T19:17:27.333Z,100255.97
2018-12-26T19:22:36.280Z,100255.39
2018-12-26T19:27:42.141Z,100258.72
2018-12-26T19:32:48.065Z,100254.05
2018-12-26T19:37:53.957Z,100248.85
2018-12-26T19:43:01.884Z,100255.97
2018-12-26T19:48:08.420Z,100265.22
2018-12-26T19:53:15.051Z,100264.35
2018-12-26T20:03:26.069Z,100268.14
2018-12-26T20:08:32.557Z,100268.14
2018-12-26T20:13:38.691Z,100257.51
2018-12-26T20:18:44.601Z,100257.51
2018-12-26T20:23:50.600Z,100260.25
2018-12-26T20:28:58.373Z,100268.52
2018-12-26T20:34:08.145Z,100259.80
2018-12-26T20:39:18.222Z,100259.72
2018-12-26T20:44:25.631Z,100259.86
2018-12-26T20:49:31.983Z,100249.91
2018-12-26T20:54:40.515Z,100245.78
2018-12-26T20:59:46.707Z,100247.31
2018-12-26T21:04:52.800Z,100247.31
2018-12-26T21:10:01.349Z,100245.83
2018-12-26T21:15:10.148Z,100251.39
2018-12-26T21:20:16.997Z,100246.05
2018-12-26T21:25:23.359Z,100234.19
2018-12-26T21:30:30.870Z,100234.19
2018-12-26T21:35:37.487Z,100227.72
2018-12-26T21:40:43.489Z,100228.33
2018-12-26T21:45:52.300Z,100228.33
2018-12-26T21:50:58.418Z,100218.62
2018-12-26T21:56:06.300Z,100218.62
2018-12-26T22:01:13.015Z,100221.45
2018-12-26T22:06:19.157Z,100225.58
2018-12-26T22:11:26.468Z,100225.58
2018-12-26T22:16:34.079Z,100227.52
2018-12-26T22:21:40.033Z,100223.69
2018-12-26T22:26:46.357Z,100228.52
2018-12-26T22:31:52.720Z,100230.02
2018-12-26T22:36:58.631Z,100234.18
2018-12-26T22:42:08.564Z,100231.50
2018-12-26T22:47:17.238Z,100229.16
2018-12-26T22:52:24.902Z,100229.22
2018-12-26T22:57:30.753Z,100225.62
2018-12-26T23:02:39.032Z,100219.80
2018-12-26T23:07:44.647Z,100222.84
2018-12-26T23:12:52.956Z,100219.16
2018-12-26T23:17:59.326Z,100221.27
2018-12-26T23:23:07.739Z,100222.23
2018-12-26T23:28:13.667Z,100225.06
2018-12-26T23:33:19.949Z,100214.48
2018-12-26T23:38:25.800Z,100214.48
2018-12-26T23:43:31.615Z,100231.19
2018-12-26T23:48:37.733Z,100224.16
2018-12-26T23:54:26.859Z,100230.84
2018-12-26T23:59:32.760Z,100225.38
